sensor_id;sensor_type;location;lat;lon;timestamp;P1;durP1;ratioP1;P2;durP2;ratioP2
20124;SDS011;10223;50.862;4.360;2024-01-30T00:00:15;8.23;;;4.47;;
20124;SDS011;10223;50.862;4.360;2024-01-30T00:02:42;7.93;;;4.70;;
20124;SDS011;10223;50.862;4.360;2024-01-30T00:05:11;6.43;;;4.20;;
20124;SDS011;10223;50.862;4.360;2024-01-30T00:07:38;6.63;;;4.57;;
20124;SDS011;10223;50.862;4.360;2024-01-30T00:10:06;6.53;;;4.00;;
20124;SDS011;10223;50.862;4.360;2024-01-30T00:12:33;5.40;;;3.80;;
20124;SDS011;10223;50.862;4.360;2024-01-30T00:15:00;8.50;;;4.50;;
20124;SDS011;10223;50.862;4.360;2024-01-30T00:17:29;8.20;;;4.27;;
20124;SDS011;10223;50.862;4.360;2024-01-30T00:19:56;8.30;;;4.47;;
20124;SDS011;10223;50.862;4.360;2024-01-30T00:22:23;8.13;;;4.70;;
20124;SDS011;10223;50.862;4.360;2024-01-30T00:24:50;8.37;;;4.57;;
20124;SDS011;10223;50.862;4.360;2024-01-30T00:27:18;6.40;;;3.97;;
20124;SDS011;10223;50.862;4.360;2024-01-30T00:29:45;6.87;;;4.40;;
20124;SDS011;10223;50.862;4.360;2024-01-30T00:32:12;12.53;;;5.07;;
20124;SDS011;10223;50.862;4.360;2024-01-30T00:34:38;7.93;;;4.47;;
20124;SDS011;10223;50.862;4.360;2024-01-30T00:37:06;7.07;;;4.47;;
20124;SDS011;10223;50.862;4.360;2024-01-30T00:39:32;9.00;;;4.40;;
20124;SDS011;10223;50.862;4.360;2024-01-30T00:41:59;6.47;;;4.00;;
20124;SDS011;10223;50.862;4.360;2024-01-30T00:44:28;8.43;;;4.13;;
20124;SDS011;10223;50.862;4.360;2024-01-30T00:46:54;11.43;;;4.40;;
20124;SDS011;10223;50.862;4.360;2024-01-30T00:49:21;6.73;;;4.50;;
20124;SDS011;10223;50.862;4.360;2024-01-30T00:51:48;8.70;;;4.63;;
20124;SDS011;10223;50.862;4.360;2024-01-30T00:54:15;9.67;;;4.90;;
20124;SDS011;10223;50.862;4.360;2024-01-30T00:56:42;7.30;;;4.63;;
20124;SDS011;10223;50.862;4.360;2024-01-30T00:59:09;6.73;;;4.10;;
20124;SDS011;10223;50.862;4.360;2024-01-30T01:01:38;8.17;;;4.00;;
20124;SDS011;10223;50.862;4.360;2024-01-30T01:04:05;6.63;;;4.00;;
20124;SDS011;10223;50.862;4.360;2024-01-30T01:06:32;10.70;;;5.10;;
20124;SDS011;10223;50.862;4.360;2024-01-30T01:08:59;9.03;;;4.47;;
20124;SDS011;10223;50.862;4.360;2024-01-30T01:11:26;8.53;;;3.97;;
20124;SDS011;10223;50.862;4.360;2024-01-30T01:13:53;8.37;;;4.03;;
20124;SDS011;10223;50.862;4.360;2024-01-30T01:16:19;7.57;;;4.10;;
20124;SDS011;10223;50.862;4.360;2024-01-30T01:18:48;6.80;;;3.90;;
20124;SDS011;10223;50.862;4.360;2024-01-30T01:21:15;8.33;;;3.60;;
20124;SDS011;10223;50.862;4.360;2024-01-30T01:23:41;7.60;;;4.50;;
20124;SDS011;10223;50.862;4.360;2024-01-30T01:26:08;8.77;;;3.97;;
20124;SDS011;10223;50.862;4.360;2024-01-30T01:28:35;5.80;;;3.77;;
20124;SDS011;10223;50.862;4.360;2024-01-30T01:31:02;5.43;;;4.13;;
20124;SDS011;10223;50.862;4.360;2024-01-30T01:33:30;6.77;;;3.93;;
20124;SDS011;10223;50.862;4.360;2024-01-30T01:35:59;6.20;;;3.80;;
20124;SDS011;10223;50.862;4.360;2024-01-30T01:38:27;9.33;;;4.20;;
20124;SDS011;10223;50.862;4.360;2024-01-30T01:40:54;6.50;;;3.57;;
20124;SDS011;10223;50.862;4.360;2024-01-30T01:43:21;6.57;;;3.70;;
20124;SDS011;10223;50.862;4.360;2024-01-30T01:45:50;8.57;;;4.30;;
20124;SDS011;10223;50.862;4.360;2024-01-30T01:48:17;7.40;;;3.90;;
20124;SDS011;10223;50.862;4.360;2024-01-30T01:50:44;8.83;;;4.10;;
20124;SDS011;10223;50.862;4.360;2024-01-30T01:53:12;6.97;;;3.90;;
20124;SDS011;10223;50.862;4.360;2024-01-30T01:55:39;7.63;;;3.77;;
20124;SDS011;10223;50.862;4.360;2024-01-30T01:58:06;6.70;;;3.97;;
20124;SDS011;10223;50.862;4.360;2024-01-30T02:00:35;9.87;;;4.20;;
20124;SDS011;10223;50.862;4.360;2024-01-30T02:03:04;7.00;;;4.60;;
20124;SDS011;10223;50.862;4.360;2024-01-30T02:05:32;6.60;;;4.40;;
20124;SDS011;10223;50.862;4.360;2024-01-30T02:08:00;8.87;;;3.97;;
20124;SDS011;10223;50.862;4.360;2024-01-30T02:10:29;5.80;;;4.00;;
20124;SDS011;10223;50.862;4.360;2024-01-30T02:12:56;8.63;;;4.20;;
20124;SDS011;10223;50.862;4.360;2024-01-30T02:15:23;8.03;;;4.23;;
20124;SDS011;10223;50.862;4.360;2024-01-30T02:17:50;5.97;;;3.77;;
20124;SDS011;10223;50.862;4.360;2024-01-30T02:20:17;7.25;;;4.43;;
20124;SDS011;10223;50.862;4.360;2024-01-30T02:22:45;9.97;;;4.00;;
20124;SDS011;10223;50.862;4.360;2024-01-30T02:25:13;8.93;;;4.03;;
20124;SDS011;10223;50.862;4.360;2024-01-30T02:27:40;8.10;;;4.00;;
20124;SDS011;10223;50.862;4.360;2024-01-30T02:30:07;6.67;;;3.60;;
20124;SDS011;10223;50.862;4.360;2024-01-30T02:32:34;8.50;;;3.80;;
20124;SDS011;10223;50.862;4.360;2024-01-30T02:35:01;9.43;;;4.43;;
20124;SDS011;10223;50.862;4.360;2024-01-30T02:37:28;9.10;;;4.53;;
20124;SDS011;10223;50.862;4.360;2024-01-30T02:39:57;8.97;;;4.13;;
20124;SDS011;10223;50.862;4.360;2024-01-30T02:42:24;6.63;;;3.87;;
20124;SDS011;10223;50.862;4.360;2024-01-30T02:44:51;10.07;;;4.27;;
20124;SDS011;10223;50.862;4.360;2024-01-30T02:47:18;7.73;;;3.97;;
20124;SDS011;10223;50.862;4.360;2024-01-30T02:49:44;9.30;;;4.00;;
20124;SDS011;10223;50.862;4.360;2024-01-30T02:52:11;8.00;;;4.23;;
20124;SDS011;10223;50.862;4.360;2024-01-30T02:54:38;6.90;;;4.07;;
20124;SDS011;10223;50.862;4.360;2024-01-30T02:57:06;10.50;;;4.00;;
20124;SDS011;10223;50.862;4.360;2024-01-30T02:59:33;7.97;;;3.90;;
20124;SDS011;10223;50.862;4.360;2024-01-30T03:02:01;9.57;;;4.13;;
20124;SDS011;10223;50.862;4.360;2024-01-30T03:04:28;7.57;;;3.80;;
20124;SDS011;10223;50.862;4.360;2024-01-30T03:06:55;6.80;;;3.93;;
20124;SDS011;10223;50.862;4.360;2024-01-30T03:09:22;8.37;;;3.73;;
20124;SDS011;10223;50.862;4.360;2024-01-30T03:11:49;10.07;;;4.40;;
20124;SDS011;10223;50.862;4.360;2024-01-30T03:14:17;6.17;;;3.80;;
20124;SDS011;10223;50.862;4.360;2024-01-30T03:16:44;8.07;;;4.30;;
20124;SDS011;10223;50.862;4.360;2024-01-30T03:19:11;11.00;;;5.43;;
20124;SDS011;10223;50.862;4.360;2024-01-30T03:21:38;8.23;;;3.90;;
20124;SDS011;10223;50.862;4.360;2024-01-30T03:24:05;8.90;;;4.50;;
20124;SDS011;10223;50.862;4.360;2024-01-30T03:26:32;6.70;;;4.20;;
20124;SDS011;10223;50.862;4.360;2024-01-30T03:28:58;7.00;;;4.20;;
20124;SDS011;10223;50.862;4.360;2024-01-30T03:31:27;9.53;;;4.33;;
20124;SDS011;10223;50.862;4.360;2024-01-30T03:33:54;7.57;;;3.90;;
20124;SDS011;10223;50.862;4.360;2024-01-30T03:36:20;8.37;;;4.40;;
20124;SDS011;10223;50.862;4.360;2024-01-30T03:38:47;10.23;;;4.53;;
20124;SDS011;10223;50.862;4.360;2024-01-30T03:41:14;9.93;;;4.10;;
20124;SDS011;10223;50.862;4.360;2024-01-30T03:43:41;7.97;;;4.20;;
20124;SDS011;10223;50.862;4.360;2024-01-30T03:46:08;6.93;;;4.20;;
20124;SDS011;10223;50.862;4.360;2024-01-30T03:48:36;8.90;;;4.37;;
20124;SDS011;10223;50.862;4.360;2024-01-30T03:51:04;9.70;;;4.00;;
20124;SDS011;10223;50.862;4.360;2024-01-30T03:53:31;9.70;;;4.57;;
20124;SDS011;10223;50.862;4.360;2024-01-30T03:55:58;9.30;;;4.87;;
20124;SDS011;10223;50.862;4.360;2024-01-30T03:58:25;11.47;;;4.50;;
20124;SDS011;10223;50.862;4.360;2024-01-30T04:00:52;9.30;;;4.27;;
20124;SDS011;10223;50.862;4.360;2024-01-30T04:03:19;9.63;;;4.43;;
20124;SDS011;10223;50.862;4.360;2024-01-30T04:05:47;8.07;;;4.50;;
20124;SDS011;10223;50.862;4.360;2024-01-30T04:08:29;8.47;;;4.33;;
20124;SDS011;10223;50.862;4.360;2024-01-30T04:10:56;8.87;;;4.47;;
20124;SDS011;10223;50.862;4.360;2024-01-30T04:13:23;10.43;;;4.73;;
20124;SDS011;10223;50.862;4.360;2024-01-30T04:15:50;10.13;;;4.70;;
20124;SDS011;10223;50.862;4.360;2024-01-30T04:18:17;10.77;;;4.37;;
20124;SDS011;10223;50.862;4.360;2024-01-30T04:20:44;7.43;;;4.10;;
20124;SDS011;10223;50.862;4.360;2024-01-30T04:23:11;10.77;;;4.30;;
20124;SDS011;10223;50.862;4.360;2024-01-30T04:25:39;8.40;;;4.53;;
20124;SDS011;10223;50.862;4.360;2024-01-30T04:28:06;7.10;;;4.20;;
20124;SDS011;10223;50.862;4.360;2024-01-30T04:30:33;9.50;;;5.33;;
20124;SDS011;10223;50.862;4.360;2024-01-30T04:33:00;11.33;;;4.93;;
20124;SDS011;10223;50.862;4.360;2024-01-30T04:35:27;9.37;;;4.70;;
20124;SDS011;10223;50.862;4.360;2024-01-30T04:37:54;8.40;;;4.60;;
20124;SDS011;10223;50.862;4.360;2024-01-30T04:40:21;8.50;;;5.07;;
20124;SDS011;10223;50.862;4.360;2024-01-30T04:42:49;7.07;;;4.43;;
20124;SDS011;10223;50.862;4.360;2024-01-30T04:45:16;11.97;;;4.93;;
20124;SDS011;10223;50.862;4.360;2024-01-30T04:47:43;10.53;;;4.80;;
20124;SDS011;10223;50.862;4.360;2024-01-30T04:50:11;15.07;;;5.00;;
20124;SDS011;10223;50.862;4.360;2024-01-30T04:52:38;11.07;;;5.03;;
20124;SDS011;10223;50.862;4.360;2024-01-30T04:55:05;8.70;;;4.30;;
20124;SDS011;10223;50.862;4.360;2024-01-30T04:57:33;8.30;;;4.43;;
20124;SDS011;10223;50.862;4.360;2024-01-30T05:00:01;8.63;;;4.63;;
20124;SDS011;10223;50.862;4.360;2024-01-30T05:02:28;8.80;;;5.33;;
20124;SDS011;10223;50.862;4.360;2024-01-30T05:04:55;9.93;;;4.50;;
20124;SDS011;10223;50.862;4.360;2024-01-30T05:07:23;10.43;;;4.90;;
20124;SDS011;10223;50.862;4.360;2024-01-30T05:09:50;9.27;;;4.87;;
20124;SDS011;10223;50.862;4.360;2024-01-30T05:12:18;11.10;;;5.17;;
20124;SDS011;10223;50.862;4.360;2024-01-30T05:14:44;8.00;;;4.97;;
20124;SDS011;10223;50.862;4.360;2024-01-30T05:17:13;9.60;;;4.43;;
20124;SDS011;10223;50.862;4.360;2024-01-30T05:19:40;9.37;;;4.53;;
20124;SDS011;10223;50.862;4.360;2024-01-30T05:22:07;8.30;;;4.20;;
20124;SDS011;10223;50.862;4.360;2024-01-30T05:24:34;11.97;;;5.03;;
20124;SDS011;10223;50.862;4.360;2024-01-30T05:27:01;8.73;;;4.67;;
20124;SDS011;10223;50.862;4.360;2024-01-30T05:29:28;8.80;;;4.60;;
20124;SDS011;10223;50.862;4.360;2024-01-30T05:31:55;6.63;;;4.40;;
20124;SDS011;10223;50.862;4.360;2024-01-30T05:34:23;11.50;;;4.67;;
20124;SDS011;10223;50.862;4.360;2024-01-30T05:36:50;11.83;;;5.07;;
20124;SDS011;10223;50.862;4.360;2024-01-30T05:39:17;9.47;;;4.87;;
20124;SDS011;10223;50.862;4.360;2024-01-30T05:41:44;16.33;;;5.20;;
20124;SDS011;10223;50.862;4.360;2024-01-30T05:44:11;7.97;;;4.90;;
20124;SDS011;10223;50.862;4.360;2024-01-30T05:46:37;10.93;;;5.47;;
20124;SDS011;10223;50.862;4.360;2024-01-30T05:49:04;10.63;;;5.10;;
20124;SDS011;10223;50.862;4.360;2024-01-30T05:51:32;11.03;;;5.53;;
20124;SDS011;10223;50.862;4.360;2024-01-30T05:53:59;9.10;;;5.17;;
20124;SDS011;10223;50.862;4.360;2024-01-30T05:56:28;10.43;;;5.30;;
20124;SDS011;10223;50.862;4.360;2024-01-30T05:58:55;11.53;;;5.30;;
20124;SDS011;10223;50.862;4.360;2024-01-30T06:01:22;10.33;;;5.40;;
20124;SDS011;10223;50.862;4.360;2024-01-30T06:03:49;13.70;;;5.13;;
20124;SDS011;10223;50.862;4.360;2024-01-30T06:06:16;13.40;;;5.13;;
20124;SDS011;10223;50.862;4.360;2024-01-30T06:08:44;10.63;;;4.77;;
20124;SDS011;10223;50.862;4.360;2024-01-30T06:11:11;13.07;;;4.90;;
20124;SDS011;10223;50.862;4.360;2024-01-30T06:13:38;10.23;;;4.90;;
20124;SDS011;10223;50.862;4.360;2024-01-30T06:16:08;9.60;;;5.47;;
20124;SDS011;10223;50.862;4.360;2024-01-30T06:18:35;10.73;;;5.37;;
20124;SDS011;10223;50.862;4.360;2024-01-30T06:21:03;10.57;;;5.23;;
20124;SDS011;10223;50.862;4.360;2024-01-30T06:23:31;11.70;;;4.93;;
20124;SDS011;10223;50.862;4.360;2024-01-30T06:25:59;14.00;;;5.13;;
20124;SDS011;10223;50.862;4.360;2024-01-30T06:28:26;11.53;;;5.17;;
20124;SDS011;10223;50.862;4.360;2024-01-30T06:30:52;13.63;;;5.37;;
20124;SDS011;10223;50.862;4.360;2024-01-30T06:33:19;11.90;;;5.00;;
20124;SDS011;10223;50.862;4.360;2024-01-30T06:35:46;8.33;;;5.27;;
20124;SDS011;10223;50.862;4.360;2024-01-30T06:38:13;10.73;;;5.60;;
20124;SDS011;10223;50.862;4.360;2024-01-30T06:40:43;10.20;;;4.83;;
20124;SDS011;10223;50.862;4.360;2024-01-30T06:43:12;8.97;;;5.37;;
20124;SDS011;10223;50.862;4.360;2024-01-30T06:45:39;21.53;;;6.43;;
20124;SDS011;10223;50.862;4.360;2024-01-30T06:48:05;11.33;;;5.23;;
20124;SDS011;10223;50.862;4.360;2024-01-30T06:50:33;12.30;;;6.00;;
20124;SDS011;10223;50.862;4.360;2024-01-30T06:53:01;13.63;;;5.30;;
20124;SDS011;10223;50.862;4.360;2024-01-30T06:55:28;12.60;;;6.17;;
20124;SDS011;10223;50.862;4.360;2024-01-30T06:57:55;11.63;;;5.90;;
20124;SDS011;10223;50.862;4.360;2024-01-30T07:00:23;8.73;;;5.40;;
20124;SDS011;10223;50.862;4.360;2024-01-30T07:02:50;12.53;;;4.70;;
20124;SDS011;10223;50.862;4.360;2024-01-30T07:05:17;11.87;;;5.50;;
20124;SDS011;10223;50.862;4.360;2024-01-30T07:07:44;12.97;;;6.17;;
20124;SDS011;10223;50.862;4.360;2024-01-30T07:10:11;9.70;;;5.70;;
20124;SDS011;10223;50.862;4.360;2024-01-30T07:12:38;14.63;;;5.73;;
20124;SDS011;10223;50.862;4.360;2024-01-30T07:15:05;10.07;;;5.57;;
20124;SDS011;10223;50.862;4.360;2024-01-30T07:17:35;19.57;;;6.30;;
20124;SDS011;10223;50.862;4.360;2024-01-30T07:20:02;13.03;;;5.87;;
20124;SDS011;10223;50.862;4.360;2024-01-30T07:22:30;9.10;;;5.57;;
20124;SDS011;10223;50.862;4.360;2024-01-30T07:24:57;11.07;;;5.50;;
20124;SDS011;10223;50.862;4.360;2024-01-30T07:27:23;11.87;;;5.60;;
20124;SDS011;10223;50.862;4.360;2024-01-30T07:29:50;11.37;;;5.67;;
20124;SDS011;10223;50.862;4.360;2024-01-30T07:32:17;17.67;;;5.30;;
20124;SDS011;10223;50.862;4.360;2024-01-30T07:34:48;13.87;;;5.40;;
20124;SDS011;10223;50.862;4.360;2024-01-30T07:37:15;10.90;;;5.80;;
20124;SDS011;10223;50.862;4.360;2024-01-30T07:39:42;11.87;;;5.73;;
20124;SDS011;10223;50.862;4.360;2024-01-30T07:42:10;9.57;;;5.40;;
20124;SDS011;10223;50.862;4.360;2024-01-30T07:44:36;17.47;;;6.43;;
20124;SDS011;10223;50.862;4.360;2024-01-30T07:47:04;13.23;;;5.53;;
20124;SDS011;10223;50.862;4.360;2024-01-30T07:49:31;23.40;;;5.97;;
20124;SDS011;10223;50.862;4.360;2024-01-30T07:51:59;12.90;;;5.87;;
20124;SDS011;10223;50.862;4.360;2024-01-30T07:54:28;17.17;;;6.60;;
20124;SDS011;10223;50.862;4.360;2024-01-30T07:56:59;17.23;;;6.17;;
20124;SDS011;10223;50.862;4.360;2024-01-30T07:59:26;15.73;;;6.53;;
20124;SDS011;10223;50.862;4.360;2024-01-30T08:01:53;12.43;;;5.83;;
20124;SDS011;10223;50.862;4.360;2024-01-30T08:04:23;14.53;;;7.23;;
20124;SDS011;10223;50.862;4.360;2024-01-30T08:06:50;13.57;;;6.17;;
20124;SDS011;10223;50.862;4.360;2024-01-30T08:09:20;19.43;;;7.77;;
20124;SDS011;10223;50.862;4.360;2024-01-30T08:11:47;12.90;;;6.20;;
20124;SDS011;10223;50.862;4.360;2024-01-30T08:14:14;13.43;;;5.90;;
20124;SDS011;10223;50.862;4.360;2024-01-30T08:16:42;14.47;;;6.33;;
20124;SDS011;10223;50.862;4.360;2024-01-30T08:19:09;13.80;;;6.60;;
20124;SDS011;10223;50.862;4.360;2024-01-30T08:21:36;13.33;;;6.23;;
20124;SDS011;10223;50.862;4.360;2024-01-30T08:24:03;15.60;;;7.27;;
20124;SDS011;10223;50.862;4.360;2024-01-30T08:26:32;14.43;;;6.70;;
20124;SDS011;10223;50.862;4.360;2024-01-30T08:29:00;15.97;;;6.63;;
20124;SDS011;10223;50.862;4.360;2024-01-30T08:31:28;20.00;;;7.47;;
20124;SDS011;10223;50.862;4.360;2024-01-30T08:33:55;16.23;;;7.20;;
20124;SDS011;10223;50.862;4.360;2024-01-30T08:36:21;16.40;;;6.87;;
20124;SDS011;10223;50.862;4.360;2024-01-30T08:38:48;14.93;;;7.27;;
20124;SDS011;10223;50.862;4.360;2024-01-30T08:41:15;18.50;;;8.03;;
20124;SDS011;10223;50.862;4.360;2024-01-30T08:43:44;11.43;;;6.53;;
20124;SDS011;10223;50.862;4.360;2024-01-30T08:46:11;16.50;;;5.90;;
20124;SDS011;10223;50.862;4.360;2024-01-30T08:48:38;23.13;;;7.17;;
20124;SDS011;10223;50.862;4.360;2024-01-30T08:51:05;14.93;;;6.37;;
20124;SDS011;10223;50.862;4.360;2024-01-30T08:53:33;15.37;;;7.20;;
20124;SDS011;10223;50.862;4.360;2024-01-30T08:56:01;18.67;;;7.23;;
20124;SDS011;10223;50.862;4.360;2024-01-30T08:58:28;12.93;;;6.33;;
20124;SDS011;10223;50.862;4.360;2024-01-30T09:00:57;14.57;;;6.80;;
20124;SDS011;10223;50.862;4.360;2024-01-30T09:03:25;17.07;;;6.20;;
20124;SDS011;10223;50.862;4.360;2024-01-30T09:05:52;14.03;;;6.67;;
20124;SDS011;10223;50.862;4.360;2024-01-30T09:08:18;14.40;;;6.53;;
20124;SDS011;10223;50.862;4.360;2024-01-30T09:10:46;11.87;;;6.83;;
20124;SDS011;10223;50.862;4.360;2024-01-30T09:13:13;16.73;;;6.50;;
20124;SDS011;10223;50.862;4.360;2024-01-30T09:15:40;15.90;;;6.93;;
20124;SDS011;10223;50.862;4.360;2024-01-30T09:18:09;14.37;;;6.23;;
20124;SDS011;10223;50.862;4.360;2024-01-30T09:20:36;11.67;;;6.47;;
20124;SDS011;10223;50.862;4.360;2024-01-30T09:23:03;20.47;;;6.93;;
20124;SDS011;10223;50.862;4.360;2024-01-30T09:25:30;15.10;;;6.67;;
20124;SDS011;10223;50.862;4.360;2024-01-30T09:27:57;23.17;;;7.30;;
20124;SDS011;10223;50.862;4.360;2024-01-30T09:30:24;18.03;;;6.60;;
20124;SDS011;10223;50.862;4.360;2024-01-30T09:32:51;18.20;;;7.27;;
20124;SDS011;10223;50.862;4.360;2024-01-30T09:35:19;14.80;;;7.20;;
20124;SDS011;10223;50.862;4.360;2024-01-30T09:37:49;17.23;;;8.07;;
20124;SDS011;10223;50.862;4.360;2024-01-30T09:40:16;12.83;;;6.90;;
20124;SDS011;10223;50.862;4.360;2024-01-30T09:42:44;14.83;;;7.07;;
20124;SDS011;10223;50.862;4.360;2024-01-30T09:45:15;17.30;;;7.87;;
20124;SDS011;10223;50.862;4.360;2024-01-30T09:47:45;19.10;;;7.70;;
20124;SDS011;10223;50.862;4.360;2024-01-30T09:50:15;18.87;;;7.70;;
20124;SDS011;10223;50.862;4.360;2024-01-30T09:52:43;20.47;;;8.50;;
20124;SDS011;10223;50.862;4.360;2024-01-30T09:55:11;19.00;;;8.00;;
20124;SDS011;10223;50.862;4.360;2024-01-30T09:57:38;21.23;;;7.63;;
20124;SDS011;10223;50.862;4.360;2024-01-30T10:00:06;16.40;;;9.33;;
20124;SDS011;10223;50.862;4.360;2024-01-30T10:02:34;18.83;;;8.60;;
20124;SDS011;10223;50.862;4.360;2024-01-30T10:05:01;19.83;;;8.70;;
20124;SDS011;10223;50.862;4.360;2024-01-30T10:07:28;16.90;;;8.03;;
20124;SDS011;10223;50.862;4.360;2024-01-30T10:09:57;15.10;;;7.80;;
20124;SDS011;10223;50.862;4.360;2024-01-30T10:12:26;24.03;;;8.10;;
20124;SDS011;10223;50.862;4.360;2024-01-30T10:14:55;18.07;;;8.33;;
20124;SDS011;10223;50.862;4.360;2024-01-30T10:17:24;19.30;;;8.77;;
20124;SDS011;10223;50.862;4.360;2024-01-30T10:19:52;26.50;;;9.37;;
20124;SDS011;10223;50.862;4.360;2024-01-30T10:22:19;20.30;;;9.30;;
20124;SDS011;10223;50.862;4.360;2024-01-30T10:24:46;19.77;;;9.97;;
20124;SDS011;10223;50.862;4.360;2024-01-30T10:27:15;18.93;;;9.13;;
20124;SDS011;10223;50.862;4.360;2024-01-30T10:29:42;20.63;;;9.07;;
20124;SDS011;10223;50.862;4.360;2024-01-30T10:32:14;19.90;;;9.53;;
20124;SDS011;10223;50.862;4.360;2024-01-30T10:34:42;18.77;;;9.50;;
20124;SDS011;10223;50.862;4.360;2024-01-30T10:37:10;19.60;;;9.27;;
20124;SDS011;10223;50.862;4.360;2024-01-30T10:39:38;22.20;;;9.40;;
20124;SDS011;10223;50.862;4.360;2024-01-30T10:42:05;18.13;;;10.00;;
20124;SDS011;10223;50.862;4.360;2024-01-30T10:44:39;24.43;;;9.53;;
20124;SDS011;10223;50.862;4.360;2024-01-30T10:47:11;19.57;;;8.73;;
20124;SDS011;10223;50.862;4.360;2024-01-30T10:49:39;21.43;;;8.23;;
20124;SDS011;10223;50.862;4.360;2024-01-30T10:52:09;19.73;;;7.57;;
20124;SDS011;10223;50.862;4.360;2024-01-30T10:54:38;19.80;;;8.20;;
20124;SDS011;10223;50.862;4.360;2024-01-30T10:57:09;14.50;;;6.70;;
20124;SDS011;10223;50.862;4.360;2024-01-30T10:59:39;20.63;;;7.63;;
20124;SDS011;10223;50.862;4.360;2024-01-30T11:02:07;17.73;;;7.47;;
20124;SDS011;10223;50.862;4.360;2024-01-30T11:04:37;25.87;;;9.00;;
20124;SDS011;10223;50.862;4.360;2024-01-30T11:07:13;17.97;;;6.70;;
20124;SDS011;10223;50.862;4.360;2024-01-30T11:09:47;14.47;;;5.63;;
20124;SDS011;10223;50.862;4.360;2024-01-30T11:12:16;6.90;;;2.87;;
20124;SDS011;10223;50.862;4.360;2024-01-30T11:14:44;5.50;;;1.63;;
20124;SDS011;10223;50.862;4.360;2024-01-30T11:17:11;3.27;;;1.20;;
20124;SDS011;10223;50.862;4.360;2024-01-30T11:19:38;7.40;;;1.97;;
20124;SDS011;10223;50.862;4.360;2024-01-30T11:22:07;10.07;;;1.40;;
20124;SDS011;10223;50.862;4.360;2024-01-30T11:24:38;3.73;;;1.33;;
20124;SDS011;10223;50.862;4.360;2024-01-30T11:27:07;8.93;;;1.37;;
20124;SDS011;10223;50.862;4.360;2024-01-30T11:29:34;5.40;;;1.33;;
20124;SDS011;10223;50.862;4.360;2024-01-30T11:32:03;5.23;;;1.60;;
20124;SDS011;10223;50.862;4.360;2024-01-30T11:34:32;2.90;;;0.90;;
20124;SDS011;10223;50.862;4.360;2024-01-30T11:37:01;7.23;;;0.90;;
20124;SDS011;10223;50.862;4.360;2024-01-30T11:39:33;3.00;;;1.17;;
20124;SDS011;10223;50.862;4.360;2024-01-30T11:42:02;3.83;;;0.90;;
20124;SDS011;10223;50.862;4.360;2024-01-30T11:44:31;2.67;;;0.80;;
20124;SDS011;10223;50.862;4.360;2024-01-30T11:46:57;2.13;;;0.90;;
20124;SDS011;10223;50.862;4.360;2024-01-30T11:49:26;4.37;;;1.00;;
20124;SDS011;10223;50.862;4.360;2024-01-30T11:51:53;6.30;;;0.97;;
20124;SDS011;10223;50.862;4.360;2024-01-30T11:54:20;4.73;;;0.70;;
20124;SDS011;10223;50.862;4.360;2024-01-30T11:56:47;4.40;;;1.07;;
20124;SDS011;10223;50.862;4.360;2024-01-30T11:59:14;4.23;;;0.90;;
20124;SDS011;10223;50.862;4.360;2024-01-30T12:01:40;7.10;;;1.57;;
20124;SDS011;10223;50.862;4.360;2024-01-30T12:04:08;3.47;;;0.80;;
20124;SDS011;10223;50.862;4.360;2024-01-30T12:06:37;3.63;;;0.90;;
20124;SDS011;10223;50.862;4.360;2024-01-30T12:09:04;7.23;;;0.90;;
20124;SDS011;10223;50.862;4.360;2024-01-30T12:11:33;3.00;;;0.70;;
20124;SDS011;10223;50.862;4.360;2024-01-30T12:14:09;9.27;;;1.30;;
20124;SDS011;10223;50.862;4.360;2024-01-30T12:16:37;2.87;;;0.70;;
20124;SDS011;10223;50.862;4.360;2024-01-30T12:19:04;2.43;;;1.10;;
20124;SDS011;10223;50.862;4.360;2024-01-30T12:21:38;11.17;;;1.00;;
20124;SDS011;10223;50.862;4.360;2024-01-30T12:24:05;3.30;;;0.80;;
20124;SDS011;10223;50.862;4.360;2024-01-30T12:26:33;3.63;;;0.77;;
20124;SDS011;10223;50.862;4.360;2024-01-30T12:29:00;3.77;;;0.83;;
20124;SDS011;10223;50.862;4.360;2024-01-30T12:31:31;4.43;;;1.20;;
20124;SDS011;10223;50.862;4.360;2024-01-30T12:33:59;4.30;;;1.00;;
20124;SDS011;10223;50.862;4.360;2024-01-30T12:36:26;5.53;;;0.80;;
20124;SDS011;10223;50.862;4.360;2024-01-30T12:38:57;3.27;;;0.80;;
20124;SDS011;10223;50.862;4.360;2024-01-30T12:41:24;6.33;;;1.03;;
20124;SDS011;10223;50.862;4.360;2024-01-30T12:43:53;4.37;;;0.60;;
20124;SDS011;10223;50.862;4.360;2024-01-30T12:46:20;3.90;;;0.80;;
20124;SDS011;10223;50.862;4.360;2024-01-30T12:48:50;9.97;;;1.43;;
20124;SDS011;10223;50.862;4.360;2024-01-30T12:51:17;7.10;;;1.60;;
20124;SDS011;10223;50.862;4.360;2024-01-30T12:53:44;3.90;;;1.07;;
20124;SDS011;10223;50.862;4.360;2024-01-30T12:56:13;7.10;;;1.67;;
20124;SDS011;10223;50.862;4.360;2024-01-30T12:58:40;5.23;;;1.33;;
20124;SDS011;10223;50.862;4.360;2024-01-30T13:01:08;3.83;;;1.03;;
20124;SDS011;10223;50.862;4.360;2024-01-30T13:03:35;5.17;;;0.97;;
20124;SDS011;10223;50.862;4.360;2024-01-30T13:06:02;4.43;;;0.87;;
20124;SDS011;10223;50.862;4.360;2024-01-30T13:08:29;5.20;;;0.80;;
20124;SDS011;10223;50.862;4.360;2024-01-30T13:10:56;3.50;;;1.00;;
20124;SDS011;10223;50.862;4.360;2024-01-30T13:13:24;12.13;;;1.93;;
20124;SDS011;10223;50.862;4.360;2024-01-30T13:15:51;6.73;;;1.07;;
20124;SDS011;10223;50.862;4.360;2024-01-30T13:18:18;3.93;;;1.43;;
20124;SDS011;10223;50.862;4.360;2024-01-30T13:20:45;9.00;;;1.07;;
20124;SDS011;10223;50.862;4.360;2024-01-30T13:23:12;6.47;;;1.27;;
20124;SDS011;10223;50.862;4.360;2024-01-30T13:25:39;6.03;;;1.23;;
20124;SDS011;10223;50.862;4.360;2024-01-30T13:28:06;6.43;;;1.33;;
20124;SDS011;10223;50.862;4.360;2024-01-30T13:30:34;5.13;;;1.20;;
20124;SDS011;10223;50.862;4.360;2024-01-30T13:33:02;3.77;;;0.90;;
20124;SDS011;10223;50.862;4.360;2024-01-30T13:35:29;5.90;;;0.90;;
20124;SDS011;10223;50.862;4.360;2024-01-30T13:37:56;4.07;;;0.80;;
20124;SDS011;10223;50.862;4.360;2024-01-30T13:40:23;4.47;;;0.90;;
20124;SDS011;10223;50.862;4.360;2024-01-30T13:42:50;2.63;;;0.97;;
20124;SDS011;10223;50.862;4.360;2024-01-30T13:45:17;4.13;;;1.10;;
20124;SDS011;10223;50.862;4.360;2024-01-30T13:47:45;4.53;;;1.17;;
20124;SDS011;10223;50.862;4.360;2024-01-30T13:50:12;3.90;;;1.17;;
20124;SDS011;10223;50.862;4.360;2024-01-30T13:52:42;5.90;;;1.20;;
20124;SDS011;10223;50.862;4.360;2024-01-30T13:55:09;11.30;;;1.37;;
20124;SDS011;10223;50.862;4.360;2024-01-30T13:57:36;6.80;;;1.13;;
20124;SDS011;10223;50.862;4.360;2024-01-30T14:00:03;6.23;;;1.30;;
20124;SDS011;10223;50.862;4.360;2024-01-30T14:02:31;5.97;;;1.20;;
20124;SDS011;10223;50.862;4.360;2024-01-30T14:05:00;6.07;;;1.03;;
20124;SDS011;10223;50.862;4.360;2024-01-30T14:07:29;6.87;;;0.93;;
20124;SDS011;10223;50.862;4.360;2024-01-30T14:09:56;6.00;;;0.70;;
20124;SDS011;10223;50.862;4.360;2024-01-30T14:12:23;7.77;;;0.97;;
20124;SDS011;10223;50.862;4.360;2024-01-30T14:14:50;9.00;;;1.27;;
20124;SDS011;10223;50.862;4.360;2024-01-30T14:17:16;7.93;;;0.93;;
20124;SDS011;10223;50.862;4.360;2024-01-30T14:19:43;6.77;;;1.03;;
20124;SDS011;10223;50.862;4.360;2024-01-30T14:22:12;3.67;;;0.90;;
20124;SDS011;10223;50.862;4.360;2024-01-30T14:24:39;4.93;;;0.73;;
20124;SDS011;10223;50.862;4.360;2024-01-30T14:27:05;8.30;;;2.10;;
20124;SDS011;10223;50.862;4.360;2024-01-30T14:29:33;3.60;;;1.07;;
20124;SDS011;10223;50.862;4.360;2024-01-30T14:32:00;6.40;;;1.20;;
20124;SDS011;10223;50.862;4.360;2024-01-30T14:34:29;5.30;;;0.87;;
20124;SDS011;10223;50.862;4.360;2024-01-30T14:36:56;5.70;;;1.10;;
20124;SDS011;10223;50.862;4.360;2024-01-30T14:39:24;7.93;;;1.00;;
20124;SDS011;10223;50.862;4.360;2024-01-30T14:41:51;4.10;;;0.80;;
20124;SDS011;10223;50.862;4.360;2024-01-30T14:44:18;3.60;;;0.90;;